Time;durP1;ratioP1;P1;durP2;ratioP2;P2;SDS_P1;SDS_P2;PMS_P1;PMS_P2;Temp;Humidity;BMP_temperature;BMP_pressure;BME280_temperature;BME280_humidity;BME280_pressure;Samples;Min_cycle;Max_cycle;Signal;HPM_P1;HPM_P2
2021/12/14 00:00:56;;;;;;;28.38;16.02;;;7.70;93.00;;;;;;6170643;23;20014;-78
2021/12/14 00:03:26;;;;;;;25.05;15.85;;;7.70;93.10;;;;;;6172752;23;20041;-78
2021/12/14 00:05:53;;;;;;;32.20;15.75;;;7.70;92.80;;;;;;6171565;23;20032;-78
2021/12/14 00:08:26;;;;;;;30.50;16.95;;;7.70;93.00;;;;;;6170273;23;20022;-78
2021/12/14 00:13:44;;;;;;;26.90;15.90;;;7.60;93.30;;;;;;6171819;23;20028;-78
2021/12/14 00:16:13;;;;;;;30.05;17.48;;;7.60;93.20;;;;;;6172683;23;20032;-78
2021/12/14 00:18:41;;;;;;;27.08;15.82;;;7.60;93.20;;;;;;6173063;23;20144;-77
2021/12/14 00:21:19;;;;;;;32.00;17.35;;;7.60;93.10;;;;;;6173543;23;20026;-78
2021/12/14 00:24:06;;;;;;;29.70;17.55;;;7.60;93.10;;;;;;6149272;23;20045;-78
2021/12/14 00:27:02;;;;;;;33.70;17.98;;;7.60;93.20;;;;;;6172668;23;20022;-78
2021/12/14 00:29:37;;;;;;;31.15;19.15;;;7.60;93.30;;;;;;6146798;23;20065;-77
2021/12/14 00:32:08;;;;;;;27.90;16.65;;;7.70;93.30;;;;;;6169302;23;20038;-79
2021/12/14 00:34:41;;;;;;;37.13;18.08;;;7.70;93.30;;;;;;6171107;23;20042;-78
2021/12/14 00:37:12;;;;;;;32.60;18.42;;;7.70;93.40;;;;;;6169350;23;20101;-77
2021/12/14 00:39:40;;;;;;;33.63;18.77;;;7.60;93.50;;;;;;6171112;23;20028;-77
2021/12/14 00:42:07;;;;;;;39.13;20.40;;;7.60;93.40;;;;;;6171415;23;20825;-78
2021/12/14 00:44:35;;;;;;;32.70;19.42;;;7.60;93.40;;;;;;6170454;23;20026;-79
2021/12/14 00:47:04;;;;;;;34.20;19.90;;;7.70;93.50;;;;;;6170345;23;20032;-78
2021/12/14 00:49:32;;;;;;;36.00;20.92;;;7.60;93.40;;;;;;6169713;23;20022;-78
2021/12/14 00:52:00;;;;;;;33.30;18.70;;;7.70;93.40;;;;;;6169505;23;20030;-78
2021/12/14 00:54:27;;;;;;;33.67;19.23;;;7.70;93.50;;;;;;6143514;23;20070;-77
2021/12/14 00:56:54;;;;;;;36.88;19.73;;;7.70;93.60;;;;;;6171082;23;20018;-78
2021/12/14 00:59:24;;;;;;;33.90;19.40;;;7.70;93.40;;;;;;6170709;23;20026;-78
2021/12/14 01:02:09;;;;;;;28.48;18.98;;;7.60;93.50;;;;;;6171332;23;20026;-78
2021/12/14 01:04:44;;;;;;;34.85;20.45;;;7.70;93.40;;;;;;6172244;23;20017;-77
2021/12/14 01:07:15;;;;;;;35.13;20.27;;;7.70;93.50;;;;;;6171778;23;20028;-78
2021/12/14 01:09:45;;;;;;;38.50;20.67;;;7.60;93.30;;;;;;6171828;23;20112;-77
2021/12/14 01:12:19;;;;;;;38.25;20.55;;;7.60;93.30;;;;;;6169929;23;20065;-77
2021/12/14 01:15:22;;;;;;;38.80;20.08;;;7.70;93.30;;;;;;6170251;23;20854;-77
2021/12/14 01:18:16;;;;;;;36.70;20.70;;;7.60;93.40;;;;;;6170781;23;20141;-78
2021/12/14 01:20:52;;;;;;;41.13;21.58;;;7.60;93.50;;;;;;6171742;23;20113;-78
2021/12/14 01:23:30;;;;;;;34.63;19.55;;;7.60;93.40;;;;;;6170225;23;20033;-78
2021/12/14 01:26:02;;;;;;;39.75;20.15;;;7.60;93.30;;;;;;6143516;23;20038;-78
2021/12/14 01:28:30;;;;;;;38.20;21.53;;;7.60;93.50;;;;;;6171014;23;20028;-78
2021/12/14 01:31:21;;;;;;;36.55;20.60;;;7.60;93.50;;;;;;6171260;23;20054;-77
2021/12/14 01:33:53;;;;;;;44.20;21.20;;;7.60;93.40;;;;;;6171984;23;20135;-78
2021/12/14 01:39:44;;;;;;;42.35;21.20;;;7.60;93.40;;;;;;6170042;23;20033;-78
2021/12/14 01:42:14;;;;;;;38.75;21.08;;;7.60;93.30;;;;;;6168611;23;20010;-78
2021/12/14 01:45:02;;;;;;;37.88;21.23;;;7.60;93.40;;;;;;6171445;23;20045;-77
2021/12/14 01:47:42;;;;;;;42.47;22.15;;;7.50;93.30;;;;;;6170753;23;21164;-77
2021/12/14 01:50:20;;;;;;;40.35;21.08;;;7.60;93.40;;;;;;6169805;23;20030;-78
2021/12/14 01:52:52;;;;;;;41.17;22.17;;;7.60;93.50;;;;;;6144791;23;20992;-78
2021/12/14 01:55:31;;;;;;;41.78;21.40;;;7.50;93.50;;;;;;6171154;23;20034;-77
2021/12/14 01:58:01;;;;;;;42.42;21.10;;;7.50;93.40;;;;;;6172490;23;20041;-78
2021/12/14 02:00:33;;;;;;;41.08;22.33;;;7.60;93.40;;;;;;6171588;23;20014;-77
2021/12/14 02:03:03;;;;;;;41.25;21.70;;;7.60;93.30;;;;;;6173152;23;20070;-77
2021/12/14 02:05:40;;;;;;;38.78;21.55;;;7.60;93.20;;;;;;6169280;23;20109;-78
2021/12/14 02:08:28;;;;;;;43.45;22.38;;;7.60;93.40;;;;;;6142932;23;20806;-77
2021/12/14 02:10:58;;;;;;;41.10;22.13;;;7.60;93.50;;;;;;6170360;23;20414;-78
2021/12/14 02:13:31;;;;;;;40.83;22.73;;;7.60;93.60;;;;;;6171177;23;20235;-78
2021/12/14 02:15:59;;;;;;;;;;;7.50;93.70;;;;;;6170658;23;20061;-78
2021/12/14 02:18:49;;;;;;;41.28;21.58;;;7.50;93.70;;;;;;6168592;23;20335;-79
2021/12/14 02:21:17;;;;;;;44.05;22.83;;;7.60;93.80;;;;;;6146042;23;20022;-78
2021/12/14 02:23:53;;;;;;;43.55;22.10;;;7.60;93.70;;;;;;6143753;23;20026;-78
2021/12/14 02:26:26;;;;;;;47.92;23.05;;;7.60;93.60;;;;;;6171182;23;20030;-78
2021/12/14 02:28:54;;;;;;;41.60;22.77;;;7.60;93.60;;;;;;6171302;23;20033;-78
2021/12/14 02:31:26;;;;;;;42.72;23.42;;;7.60;93.80;;;;;;6165909;23;20109;-78
2021/12/14 02:33:56;;;;;;;46.85;24.65;;;7.60;93.70;;;;;;6170176;23;20022;-78
2021/12/14 02:36:27;;;;;;;42.85;23.30;;;7.60;93.70;;;;;;6171560;23;20030;-79
2021/12/14 02:39:06;;;;;;;42.20;23.83;;;7.60;93.60;;;;;;6170360;23;20900;-78
2021/12/14 02:41:46;;;;;;;45.75;24.08;;;7.50;93.70;;;;;;6169374;23;20025;-78
2021/12/14 02:44:14;;;;;;;53.72;24.92;;;7.50;93.70;;;;;;6169610;23;20037;-78
2021/12/14 02:46:46;;;;;;;47.55;23.73;;;7.50;93.60;;;;;;6170993;23;20033;-78
2021/12/14 02:49:23;;;;;;;47.13;23.75;;;7.50;93.50;;;;;;6172029;23;20033;-78
2021/12/14 02:51:55;;;;;;;48.85;23.48;;;7.50;93.60;;;;;;6170181;23;20074;-78
2021/12/14 02:54:32;;;;;;;38.13;22.65;;;7.60;93.70;;;;;;6170866;23;20018;-78
2021/12/14 02:57:06;;;;;;;47.20;23.90;;;7.50;93.50;;;;;;6171212;23;20057;-79
2021/12/14 02:59:36;;;;;;;50.85;25.17;;;7.50;93.50;;;;;;6168797;23;20910;-77
2021/12/14 03:02:08;;;;;;;47.47;23.08;;;7.60;93.60;;;;;;6170051;23;20093;-78
2021/12/14 03:04:42;;;;;;;45.05;23.80;;;7.60;93.60;;;;;;6144295;23;20026;-78
2021/12/14 03:07:11;;;;;;;45.67;22.40;;;7.50;93.50;;;;;;6168691;23;20431;-78
2021/12/14 03:09:57;;;;;;;45.90;23.20;;;7.50;93.60;;;;;;6166512;23;20810;-78
2021/12/14 03:12:34;;;;;;;46.10;24.20;;;7.50;93.50;;;;;;6141840;23;20070;-78
2021/12/14 03:15:05;;;;;;;43.78;24.20;;;7.50;93.70;;;;;;6166061;23;20021;-78
2021/12/14 03:17:32;;;;;;;49.05;24.25;;;7.50;93.70;;;;;;6165915;23;20034;-78
2021/12/14 03:20:26;;;;;;;42.63;23.27;;;7.50;93.70;;;;;;6167941;23;20827;-78
2021/12/14 03:23:07;;;;;;;48.17;24.45;;;7.50;93.70;;;;;;6165867;23;20078;-79
2021/12/14 03:25:38;;;;;;;47.78;23.40;;;7.50;93.70;;;;;;6137739;23;20033;-78
2021/12/14 03:28:06;;;;;;;43.50;23.90;;;7.50;93.90;;;;;;6165553;23;20081;-79
2021/12/14 03:30:39;;;;;;;42.70;23.90;;;7.50;93.90;;;;;;6141147;23;20037;-78
2021/12/14 03:33:12;;;;;;;43.47;22.73;;;7.50;93.80;;;;;;6168896;23;20026;-78
2021/12/14 03:35:50;;;;;;;43.90;23.50;;;7.50;93.70;;;;;;6171160;23;20269;-78
2021/12/14 03:38:21;;;;;;;45.42;24.50;;;7.50;93.70;;;;;;6169137;23;20053;-79
2021/12/14 03:41:17;;;;;;;42.92;23.95;;;7.50;93.80;;;;;;6167400;23;20026;-78
2021/12/14 03:43:58;;;;;;;46.55;24.38;;;7.50;93.70;;;;;;6162314;23;20029;-78
2021/12/14 03:46:32;;;;;;;45.03;23.88;;;7.50;93.60;;;;;;6167298;23;20030;-78
2021/12/14 03:49:00;;;;;;;;;;;7.50;93.70;;;;;;6167169;23;20053;-78
2021/12/14 03:51:27;;;;;;;41.33;22.70;;;7.50;93.80;;;;;;6166700;23;19962;-78
2021/12/14 03:53:56;;;;;;;47.63;24.35;;;7.50;93.30;;;;;;6169048;23;20033;-78
2021/12/14 03:56:24;;;;;;;50.80;25.83;;;7.50;93.40;;;;;;6165453;23;20022;-79
2021/12/14 03:58:51;;;;;;;41.95;25.27;;;7.50;93.50;;;;;;6143532;23;20030;-78
2021/12/14 04:01:23;;;;;;;48.28;23.90;;;7.50;93.50;;;;;;6168097;23;20021;-78
2021/12/14 04:03:55;;;;;;;44.88;23.70;;;7.50;93.30;;;;;;6167796;23;20021;-78
2021/12/14 04:06:22;;;;;;;42.95;24.20;;;7.50;93.50;;;;;;6165995;23;20022;-79
2021/12/14 04:08:55;;;;;;;42.20;22.83;;;7.50;93.40;;;;;;6164012;23;20026;-78
2021/12/14 04:11:25;;;;;;;46.47;24.67;;;7.50;93.50;;;;;;6162808;23;20026;-78
2021/12/14 04:13:54;;;;;;;43.28;23.77;;;7.50;93.40;;;;;;6167012;23;20022;-78
2021/12/14 04:16:23;;;;;;;45.97;23.17;;;7.50;93.30;;;;;;6164408;23;20104;-78
2021/12/14 04:18:50;;;;;;;44.42;23.38;;;7.50;93.50;;;;;;6165987;23;20030;-78
2021/12/14 04:21:22;;;;;;;41.95;23.27;;;7.50;93.50;;;;;;6169732;23;20034;-78
2021/12/14 04:23:52;;;;;;;42.03;23.23;;;7.40;93.40;;;;;;6166686;23;20525;-78
2021/12/14 04:26:21;;;;;;;43.05;23.77;;;7.40;93.40;;;;;;6164607;23;20022;-78
2021/12/14 04:28:54;;;;;;;44.58;23.52;;;7.40;93.30;;;;;;6163968;23;20104;-78
2021/12/14 04:31:25;;;;;;;44.67;22.87;;;7.40;93.50;;;;;;6164900;23;20030;-78
2021/12/14 04:33:54;;;;;;;44.92;23.70;;;7.40;93.50;;;;;;6166483;23;20034;-78
2021/12/14 04:36:26;;;;;;;43.88;23.10;;;7.40;93.50;;;;;;6165186;23;20065;-78
2021/12/14 04:39:01;;;;;;;46.88;23.40;;;7.40;93.50;;;;;;6140073;23;20101;-78
2021/12/14 04:53:16;;;;;;;46.17;23.73;;;7.40;93.40;;;;;;6168782;23;20074;-78
2021/12/14 04:55:45;;;;;;;41.13;22.77;;;7.40;93.40;;;;;;6164677;23;20817;-79
2021/12/14 04:58:13;;;;;;;39.88;22.80;;;7.40;93.50;;;;;;6168021;23;20021;-78
2021/12/14 05:00:46;;;;;;;45.97;23.60;;;7.30;93.40;;;;;;6169047;23;20084;-79
2021/12/14 05:03:28;;;;;;;42.38;22.80;;;7.30;93.60;;;;;;6143529;23;20045;-78
2021/12/14 05:06:09;;;;;;;40.83;23.27;;;7.30;93.70;;;;;;6168398;23;20775;-78
2021/12/14 05:11:08;;;;;;;42.67;22.67;;;7.20;93.40;;;;;;6167747;23;20022;-77
2021/12/14 05:13:47;;;;;;;41.47;21.55;;;7.20;93.30;;;;;;6173669;23;20030;-78
2021/12/14 05:16:21;;;;;;;41.13;21.60;;;7.10;93.20;;;;;;6145461;23;20014;-78
2021/12/14 05:18:54;;;;;;;46.45;22.80;;;7.00;93.30;;;;;;6144031;23;20596;-78
2021/12/14 05:21:46;;;;;;;45.10;22.30;;;6.90;93.30;;;;;;6139387;23;20230;-78
2021/12/14 05:24:18;;;;;;;45.47;22.45;;;7.00;93.70;;;;;;6116322;23;20026;-78
2021/12/14 05:27:00;;;;;;;45.38;22.38;;;7.00;93.80;;;;;;6141885;23;20026;-78
2021/12/14 05:29:30;;;;;;;42.33;23.27;;;7.00;94.00;;;;;;6163932;23;20077;-78
2021/12/14 05:32:00;;;;;;;44.85;22.27;;;7.00;94.00;;;;;;6171056;23;20390;-78
2021/12/14 05:34:28;;;;;;;45.30;22.02;;;7.00;94.00;;;;;;6168949;23;20037;-79
2021/12/14 05:36:56;;;;;;;45.83;22.30;;;7.00;94.00;;;;;;6172182;23;20109;-78
2021/12/14 05:44:45;;;;;;;45.95;22.92;;;7.10;94.00;;;;;;6166954;23;20035;-79
2021/12/14 05:47:18;;;;;;;38.60;20.65;;;7.10;93.80;;;;;;6172138;23;20041;-78
2021/12/14 05:49:48;;;;;;;39.28;20.90;;;7.10;93.80;;;;;;6173592;23;20022;-78
2021/12/14 05:52:22;;;;;;;38.67;20.80;;;7.20;93.80;;;;;;6169716;23;20030;-78
2021/12/14 05:54:54;;;;;;;44.58;23.00;;;7.20;93.70;;;;;;6172106;23;20022;-78
2021/12/14 05:57:25;;;;;;;40.40;21.10;;;7.20;93.70;;;;;;6175567;23;20077;-78
2021/12/14 05:59:53;;;;;;;39.10;21.45;;;7.20;93.60;;;;;;6179956;23;20053;-78
2021/12/14 06:02:20;;;;;;;41.30;21.30;;;7.20;93.70;;;;;;6172190;23;20017;-78
2021/12/14 06:04:51;;;;;;;39.63;20.70;;;7.20;93.70;;;;;;6172171;23;20018;-79
2021/12/14 06:07:23;;;;;;;39.65;20.80;;;7.10;93.60;;;;;;6175236;23;20078;-79
2021/12/14 06:09:52;;;;;;;41.38;22.13;;;7.20;93.50;;;;;;6175838;23;20037;-78
2021/12/14 06:12:27;;;;;;;37.58;20.92;;;7.20;93.40;;;;;;6171439;23;20014;-78
2021/12/14 06:14:58;;;;;;;39.50;20.88;;;7.20;93.50;;;;;;6166271;23;20139;-79
2021/12/14 06:17:29;;;;;;;42.25;21.98;;;7.20;93.60;;;;;;6170542;23;20050;-79
2021/12/14 06:20:14;;;;;;;39.20;21.50;;;7.20;93.60;;;;;;6171544;23;20026;-78
2021/12/14 06:22:42;;;;;;;37.20;20.52;;;7.20;93.60;;;;;;6166102;23;20057;-79
2021/12/14 06:25:17;;;;;;;36.30;20.75;;;7.20;93.50;;;;;;6162889;23;20042;-78
2021/12/14 06:27:47;;;;;;;40.15;21.17;;;7.20;93.60;;;;;;6167130;23;20018;-79
2021/12/14 06:30:18;;;;;;;41.25;21.23;;;7.20;93.70;;;;;;6172906;23;20884;-78
2021/12/14 06:33:04;;;;;;;36.63;19.98;;;7.20;93.50;;;;;;6151338;23;20022;-79
2021/12/14 06:35:45;;;;;;;37.03;21.00;;;7.20;93.10;;;;;;6175687;23;20034;-78
2021/12/14 06:38:29;;;;;;;38.60;21.50;;;7.20;93.10;;;;;;6173532;23;20046;-78
2021/12/14 06:41:06;;;;;;;43.65;21.25;;;7.20;93.30;;;;;;6171601;23;20032;-77
2021/12/14 06:43:35;;;;;;;41.03;21.85;;;7.20;93.30;;;;;;6168809;23;20053;-78
2021/12/14 06:46:08;;;;;;;41.28;21.63;;;7.20;93.50;;;;;;6175635;23;20022;-78
2021/12/14 06:48:40;;;;;;;39.03;21.00;;;7.20;93.30;;;;;;6176373;23;20015;-78
2021/12/14 06:51:24;;;;;;;45.65;21.58;;;7.20;93.40;;;;;;6174200;23;20029;-79
2021/12/14 06:53:57;;;;;;;36.95;20.55;;;7.20;93.20;;;;;;6143873;23;20838;-78
2021/12/14 06:56:27;;;;;;;40.28;21.02;;;7.20;93.40;;;;;;6141177;23;20499;-79
2021/12/14 06:58:56;;;;;;;40.70;21.52;;;7.20;93.50;;;;;;6172016;23;20024;-78
2021/12/14 07:01:31;;;;;;;38.22;20.88;;;7.20;93.30;;;;;;6172993;23;20021;-78
2021/12/14 07:04:05;;;;;;;40.28;20.50;;;7.20;93.30;;;;;;6168362;23;20762;-78
2021/12/14 07:06:40;;;;;;;36.35;20.50;;;7.20;93.30;;;;;;6171046;23;20014;-79
2021/12/14 07:09:19;;;;;;;37.55;20.40;;;7.20;93.30;;;;;;6172723;23;20030;-78
2021/12/14 07:11:59;;;;;;;39.20;20.05;;;7.20;93.40;;;;;;6171111;23;20037;-78
2021/12/14 07:14:31;;;;;;;40.85;20.23;;;7.20;93.40;;;;;;6170191;23;20026;-78
2021/12/14 07:17:08;;;;;;;41.47;21.45;;;7.20;93.20;;;;;;6168930;23;20037;-78
2021/12/14 07:19:51;;;;;;;43.35;22.48;;;7.20;93.40;;;;;;6166954;23;20061;-78
2021/12/14 07:22:25;;;;;;;41.88;21.67;;;7.20;93.30;;;;;;6164273;23;20014;-79
2021/12/14 07:25:12;;;;;;;38.50;20.55;;;7.20;93.30;;;;;;6140558;23;20033;-79
2021/12/14 07:27:50;;;;;;;39.20;20.90;;;7.20;93.20;;;;;;6148444;23;20375;-78
2021/12/14 07:30:42;;;;;;;41.08;21.42;;;7.20;93.20;;;;;;6161403;23;20407;-78
2021/12/14 07:33:12;;;;;;;36.58;19.92;;;7.20;93.40;;;;;;6141762;23;20347;-77
2021/12/14 07:35:52;;;;;;;43.08;22.70;;;7.20;93.40;;;;;;6160705;23;20034;-78
2021/12/14 07:38:29;;;;;;;40.53;21.73;;;7.20;93.30;;;;;;6164465;23;20042;-77
2021/12/14 07:41:13;;;;;;;43.13;21.63;;;7.20;93.10;;;;;;6154497;23;20018;-77
2021/12/14 07:43:54;;;;;;;39.28;21.00;;;7.20;93.10;;;;;;6158733;23;20026;-78
2021/12/14 07:46:36;;;;;;;44.72;22.02;;;7.20;93.20;;;;;;6160251;23;20831;-78
2021/12/14 07:49:17;;;;;;;43.63;21.42;;;7.20;93.20;;;;;;6160178;23;20018;-78
2021/12/14 07:51:48;;;;;;;44.50;21.27;;;7.20;93.20;;;;;;6160905;23;20799;-78
2021/12/14 07:54:20;;;;;;;42.40;21.05;;;7.20;93.20;;;;;;6162142;23;20026;-78
2021/12/14 07:56:52;;;;;;;36.00;20.52;;;7.20;93.20;;;;;;6162504;23;20033;-78
2021/12/14 07:59:27;;;;;;;38.75;21.17;;;7.20;92.90;;;;;;6163499;23;20041;-78
2021/12/14 08:02:21;;;;;;;36.05;21.00;;;7.20;92.80;;;;;;6160292;23;20541;-78
2021/12/14 08:04:59;;;;;;;37.75;21.15;;;7.20;92.70;;;;;;6162720;23;20112;-78
2021/12/14 08:07:38;;;;;;;38.65;20.50;;;7.30;92.90;;;;;;6159136;23;20030;-78
2021/12/14 08:10:27;;;;;;;39.45;20.90;;;7.30;93.00;;;;;;6161249;23;20793;-79
2021/12/14 08:13:08;;;;;;;40.75;20.27;;;7.30;93.00;;;;;;6160113;23;20471;-78
2021/12/14 08:15:43;;;;;;;40.42;20.35;;;7.30;92.80;;;;;;6161136;23;20025;-78
2021/12/14 08:18:32;;;;;;;41.42;21.02;;;7.30;93.00;;;;;;6159259;23;20025;-79
2021/12/14 08:21:04;;;;;;;39.33;20.70;;;7.40;92.80;;;;;;6159151;23;20022;-78
2021/12/14 08:23:49;;;;;;;36.83;21.33;;;7.40;92.70;;;;;;6157940;23;20026;-78
2021/12/14 08:26:22;;;;;;;36.90;20.85;;;7.40;92.40;;;;;;6159033;23;20026;-78
2021/12/14 08:29:14;;;;;;;39.43;20.63;;;7.40;92.60;;;;;;6158453;23;20137;-78
2021/12/14 08:31:46;;;;;;;41.15;21.90;;;7.40;92.70;;;;;;6156826;23;20041;-78
2021/12/14 08:34:28;;;;;;;42.38;21.35;;;7.40;92.50;;;;;;6157417;23;20410;-78
2021/12/14 08:37:12;;;;;;;39.03;20.67;;;7.50;92.80;;;;;;6157617;23;20876;-78
2021/12/14 08:39:45;;;;;;;39.22;20.95;;;7.50;92.80;;;;;;6159698;23;20020;-78
2021/12/14 08:42:17;;;;;;;38.97;20.53;;;7.50;92.80;;;;;;6133378;23;20089;-77
2021/12/14 08:44:59;;;;;;;37.75;19.80;;;7.60;92.40;;;;;;6159569;23;20026;-77
2021/12/14 08:47:31;;;;;;;35.60;20.52;;;7.60;92.60;;;;;;6161328;23;20144;-77
2021/12/14 08:50:08;;;;;;;39.45;21.10;;;7.60;92.60;;;;;;6159305;23;20026;-77
2021/12/14 08:52:40;;;;;;;39.90;20.40;;;7.60;92.50;;;;;;6132947;23;20022;-77
2021/12/14 08:55:10;;;;;;;35.85;20.02;;;7.60;92.10;;;;;;6160579;23;20058;-78
2021/12/14 08:57:42;;;;;;;37.08;20.50;;;7.70;92.00;;;;;;6160162;23;20081;-78
2021/12/14 09:00:24;;;;;;;36.63;20.70;;;7.70;92.40;;;;;;6131324;23;20014;-78
2021/12/14 09:02:59;;;;;;;37.63;21.27;;;7.70;92.10;;;;;;6159428;23;20896;-78
2021/12/14 09:05:52;;;;;;;36.47;20.42;;;7.80;92.20;;;;;;6129935;23;20507;-77
2021/12/14 09:08:21;;;;;;;39.10;20.48;;;7.80;92.00;;;;;;6161844;23;20788;-78
2021/12/14 09:10:54;;;;;;;35.95;20.77;;;7.90;92.00;;;;;;6134727;23;20026;-77
2021/12/14 09:13:22;;;;;;;38.75;21.05;;;7.90;92.20;;;;;;6160624;23;20782;-78
2021/12/14 09:16:04;;;;;;;38.28;20.13;;;7.90;91.90;;;;;;6132644;23;20033;-78
2021/12/14 09:18:36;;;;;;;36.22;20.67;;;7.90;92.10;;;;;;6158386;23;20018;-78
2021/12/14 09:21:21;;;;;;;38.30;21.30;;;7.90;91.60;;;;;;6160272;23;20029;-77
2021/12/14 09:23:53;;;;;;;37.25;21.35;;;7.90;91.60;;;;;;6134974;23;20029;-77
2021/12/14 09:26:34;;;;;;;38.75;20.75;;;7.90;91.70;;;;;;6158870;23;20486;-78
2021/12/14 09:29:07;;;;;;;37.85;21.70;;;7.90;91.90;;;;;;6159108;23;20979;-78
2021/12/14 09:31:39;;;;;;;38.17;21.13;;;7.90;91.80;;;;;;6132851;23;20026;-78
2021/12/14 09:34:22;;;;;;;41.67;21.98;;;7.90;91.80;;;;;;6159880;23;20014;-78
2021/12/14 09:36:51;;;;;;;39.25;20.90;;;7.90;91.70;;;;;;6136031;23;20030;-78
2021/12/14 09:39:21;;;;;;;37.55;21.63;;;7.90;91.80;;;;;;6163225;23;20491;-78
2021/12/14 09:41:53;;;;;;;39.85;21.05;;;7.90;91.90;;;;;;6163314;23;20072;-77
2021/12/14 09:44:24;;;;;;;46.22;22.25;;;8.00;92.00;;;;;;6160519;23;20129;-78
2021/12/14 09:47:00;;;;;;;40.63;22.17;;;8.00;91.70;;;;;;6159733;23;20018;-78
2021/12/14 09:49:28;;;;;;;39.53;21.77;;;8.00;92.10;;;;;;6137035;23;20034;-78
2021/12/14 09:52:03;;;;;;;40.47;21.98;;;8.00;91.20;;;;;;6166032;23;20006;-78
2021/12/14 09:54:34;;;;;;;39.42;21.80;;;8.10;91.50;;;;;;6141521;23;20014;-78
2021/12/14 09:57:11;;;;;;;40.70;22.52;;;8.10;91.60;;;;;;6164050;23;20045;-77
2021/12/14 09:59:42;;;;;;;42.10;22.23;;;8.00;91.30;;;;;;6136380;23;20052;-78
2021/12/14 10:02:37;;;;;;;47.67;23.60;;;8.10;91.90;;;;;;6161232;23;20090;-78
2021/12/14 10:05:13;;;;;;;44.45;22.17;;;8.10;91.90;;;;;;6161614;23;20029;-78
2021/12/14 10:07:40;;;;;;;44.03;23.17;;;8.20;92.30;;;;;;6135183;23;20805;-77
2021/12/14 10:10:15;;;;;;;43.63;22.45;;;8.20;92.30;;;;;;6162091;23;20022;-78
2021/12/14 10:12:50;;;;;;;44.85;23.77;;;8.30;92.10;;;;;;6162686;23;20077;-77
2021/12/14 10:15:32;;;;;;;45.75;24.27;;;8.30;92.10;;;;;;6165293;23;20026;-78
2021/12/14 10:18:11;;;;;;;50.00;25.20;;;8.30;92.20;;;;;;6137656;23;20022;-78
2021/12/14 10:20:55;;;;;;;52.60;24.67;;;8.40;92.20;;;;;;6141454;23;20041;-78
2021/12/14 10:23:30;;;;;;;54.85;26.05;;;8.40;92.50;;;;;;6165696;23;20023;-78
2021/12/14 10:26:11;;;;;;;52.95;24.75;;;8.50;92.60;;;;;;6161949;23;20022;-78
2021/12/14 10:28:46;;;;;;;50.97;25.33;;;8.40;92.40;;;;;;6136397;23;20053;-78
2021/12/14 10:31:36;;;;;;;53.35;25.63;;;8.40;92.60;;;;;;6110588;23;20030;-79
2021/12/14 10:34:14;;;;;;;53.60;25.45;;;8.40;92.60;;;;;;6132638;23;20029;-78
2021/12/14 10:37:09;;;;;;;54.25;25.58;;;8.30;92.80;;;;;;6135288;23;20131;-78
2021/12/14 10:43:05;;;;;;;60.28;26.92;;;8.40;93.00;;;;;;6135260;23;20014;-78
2021/12/14 10:46:00;;;;;;;61.00;27.60;;;8.50;93.20;;;;;;6133411;23;20022;-77
2021/12/14 10:48:37;;;;;;;52.75;27.45;;;8.50;92.80;;;;;;6135536;23;20011;-78
2021/12/14 10:51:10;;;;;;;58.50;28.75;;;8.50;92.80;;;;;;6135640;23;20670;-78
2021/12/14 10:53:50;;;;;;;52.47;28.48;;;8.50;93.00;;;;;;6133614;23;20825;-77
2021/12/14 10:56:58;;;;;;;54.10;26.83;;;8.50;92.70;;;;;;6114808;23;20034;-78
2021/12/14 10:59:34;;;;;;;57.78;28.15;;;8.60;92.70;;;;;;6136510;23;20799;-78
2021/12/14 11:02:05;;;;;;;57.25;27.88;;;8.50;92.50;;;;;;6106857;23;20023;-78
2021/12/14 11:04:39;;;;;;;55.88;27.77;;;8.60;92.70;;;;;;6109763;23;20739;-78
2021/12/14 11:07:18;;;;;;;55.67;28.33;;;8.50;92.20;;;;;;6135059;23;20040;-78
2021/12/14 11:09:55;;;;;;;60.50;29.08;;;8.60;92.30;;;;;;6133222;23;20026;-79
2021/12/14 11:12:33;;;;;;;60.03;29.05;;;8.60;92.50;;;;;;6107742;23;20779;-79
2021/12/14 11:15:13;;;;;;;58.90;28.55;;;8.60;92.60;;;;;;6134668;23;20460;-78
2021/12/14 11:20:53;;;;;;;63.50;28.63;;;8.60;92.10;;;;;;6131840;23;20082;-78
2021/12/14 11:23:45;;;;;;;61.08;29.38;;;8.70;92.30;;;;;;6109722;23;20038;-78
2021/12/14 11:26:28;;;;;;;61.83;30.35;;;8.70;92.20;;;;;;6136589;23;20026;-78
2021/12/14 11:29:23;;;;;;;65.85;29.75;;;8.60;91.90;;;;;;6134063;23;20018;-78
2021/12/14 11:31:55;;;;;;;62.10;30.52;;;8.60;92.30;;;;;;6105607;23;20030;-78
2021/12/14 11:34:35;;;;;;;63.38;30.15;;;8.70;92.20;;;;;;6104471;23;20026;-78
2021/12/14 11:37:08;;;;;;;75.32;30.13;;;8.70;92.40;;;;;;6102633;23;20014;-78
2021/12/14 11:39:41;;;;;;;63.83;31.15;;;8.70;92.10;;;;;;6131469;23;20026;-78
2021/12/14 11:42:19;;;;;;;64.40;31.80;;;8.70;92.30;;;;;;6134596;23;20047;-78
2021/12/14 11:44:57;;;;;;;63.92;30.75;;;8.70;92.20;;;;;;6129909;23;20068;-78
2021/12/14 11:50:01;;;;;;;;;;;8.70;92.10;;;;;;6130985;23;20007;-78
2021/12/14 11:53:02;;;;;;;67.38;29.83;;;8.70;92.30;;;;;;6133938;23;19922;-77
2021/12/14 11:55:38;;;;;;;67.18;31.38;;;8.70;92.40;;;;;;6120400;23;20650;-78
2021/12/14 11:58:19;;;;;;;79.68;32.65;;;8.70;92.60;;;;;;6130998;23;21154;-78
2021/12/14 12:00:51;;;;;;;70.10;31.85;;;8.70;92.50;;;;;;6132499;23;20034;-78
2021/12/14 12:03:32;;;;;;;74.90;33.03;;;8.70;92.80;;;;;;6103622;23;20054;-78
2021/12/14 12:06:45;;;;;;;68.43;32.05;;;8.80;93.00;;;;;;6102271;23;20741;-77
2021/12/14 12:09:50;;;;;;;69.60;31.13;;;8.80;92.90;;;;;;6129531;23;20018;-77
2021/12/14 12:12:25;;;;;;;;;;;8.80;92.80;;;;;;5981144;23;20085;-78
2021/12/14 12:15:14;;;;;;;65.97;30.30;;;8.80;93.00;;;;;;5981447;23;20077;-78
2021/12/14 12:17:58;;;;;;;72.82;30.75;;;8.80;92.80;;;;;;5959191;23;20738;-78
2021/12/14 12:20:31;;;;;;;73.88;31.63;;;8.80;93.00;;;;;;5980220;23;20078;-78
2021/12/14 12:23:04;;;;;;;72.80;31.60;;;8.80;92.90;;;;;;5981581;23;20056;-77
2021/12/14 12:25:44;;;;;;;67.05;30.70;;;8.80;93.20;;;;;;5980046;23;20027;-78
2021/12/14 12:28:23;;;;;;;82.72;34.25;;;8.70;93.20;;;;;;6003212;23;20035;-78
2021/12/14 12:31:00;;;;;;;76.75;32.30;;;8.70;93.60;;;;;;6009010;23;20024;-78
2021/12/14 12:33:46;;;;;;;77.35;31.58;;;8.70;93.70;;;;;;6008482;23;20028;-77
2021/12/14 12:36:28;;;;;;;72.88;31.50;;;8.70;93.60;;;;;;6007983;23;20035;-78
2021/12/14 12:39:05;;;;;;;81.47;31.33;;;8.70;93.60;;;;;;5985677;23;20104;-77
2021/12/14 12:41:49;;;;;;;76.82;33.15;;;8.60;94.10;;;;;;6009029;23;20128;-77
2021/12/14 12:44:21;;;;;;;84.10;33.13;;;8.60;94.30;;;;;;5983373;23;20540;-77
2021/12/14 12:46:49;;;;;;;102.30;33.03;;;8.60;94.50;;;;;;6110143;23;20081;-77
2021/12/14 12:49:22;;;;;;;92.10;31.45;;;8.60;94.70;;;;;;6156176;23;20849;-77
2021/12/14 12:52:13;;;;;;;73.20;30.02;;;8.60;94.80;;;;;;6153547;23;20053;-77
2021/12/14 12:54:57;;;;;;;103.40;34.08;;;8.60;94.80;;;;;;6155252;23;20470;-77
2021/12/14 12:57:33;;;;;;;86.25;32.42;;;8.60;94.80;;;;;;6154823;23;20022;-77
2021/12/14 13:00:24;;;;;;;78.97;32.28;;;8.50;94.90;;;;;;6154013;23;20105;-77
2021/12/14 13:03:13;;;;;;;89.85;34.45;;;8.60;95.00;;;;;;6156543;23;20026;-77
2021/12/14 13:05:55;;;;;;;89.03;33.53;;;8.50;95.00;;;;;;6153363;23;20034;-77
2021/12/14 13:08:26;;;;;;;91.90;32.40;;;8.60;95.10;;;;;;6152225;23;20025;-76
2021/12/14 13:10:55;;;;;;;87.07;32.95;;;8.60;95.10;;;;;;6153342;23;20032;-77
2021/12/14 13:13:31;;;;;;;88.32;34.28;;;8.60;95.10;;;;;;6153961;23;20073;-77
2021/12/14 13:16:22;;;;;;;107.03;34.53;;;8.60;95.00;;;;;;6154492;23;20572;-77
2021/12/14 13:18:50;;;;;;;111.60;34.15;;;8.60;95.10;;;;;;6153895;23;20797;-77
2021/12/14 13:21:35;;;;;;;113.03;34.47;;;8.60;95.20;;;;;;6152615;23;20070;-77
2021/12/14 13:24:13;;;;;;;;;;;8.60;95.10;;;;;;6156690;23;20924;-77
2021/12/14 13:27:20;;;;;;;83.80;31.60;;;8.70;95.10;;;;;;6155418;23;20046;-78
2021/12/14 13:30:05;;;;;;;86.35;32.13;;;8.60;95.00;;;;;;6155227;23;20394;-77
2021/12/14 13:32:35;;;;;;;92.40;32.75;;;8.70;95.00;;;;;;6129416;23;20030;-77
2021/12/14 13:35:15;;;;;;;82.10;32.53;;;8.70;95.00;;;;;;6155344;23;20034;-77
2021/12/14 13:37:56;;;;;;;84.68;32.05;;;8.60;95.20;;;;;;6131250;23;20037;-77
2021/12/14 13:40:27;;;;;;;86.60;33.20;;;8.70;95.20;;;;;;6157466;23;20050;-78
2021/12/14 13:43:12;;;;;;;83.57;32.20;;;8.60;95.20;;;;;;6157366;23;20029;-77
2021/12/14 13:45:47;;;;;;;87.13;31.08;;;8.70;95.40;;;;;;6155740;23;20068;-77
2021/12/14 13:48:23;;;;;;;88.00;31.05;;;8.70;95.30;;;;;;6157107;23;20040;-77
2021/12/14 13:50:57;;;;;;;88.63;30.17;;;8.70;95.20;;;;;;6157091;23;20168;-77
2021/12/14 13:53:24;;;;;;;112.85;33.22;;;8.70;95.10;;;;;;6156778;23;20097;-77
2021/12/14 13:56:34;;;;;;;83.18;29.08;;;8.70;95.30;;;;;;6154609;23;20480;-77
2021/12/14 13:59:04;;;;;;;79.28;28.90;;;8.80;95.20;;;;;;6156241;23;20821;-76